3MD3 weather

Hoopers Heliport
Ocean City, Maryland, United States

Public forecast

Using degrees Fahrenheit for public forecast. Weather courtesy of forecast.io.

METAR (pilot weather report)

Closest report is Ocean City Municipal Airport, 0.2 nm (0.3 km) WSW. Retrieved 2019/02/15 20:53 UTC (46 minutes ago):

KOXB 152053Z AUTO 22009G14KT 10SM SCT090 12/07 A2971 RMK AO2 SLP061 T01220072 56017

TAF (pilot weather forecast)

Closest forecast is Salisbury Ocean City Wicomico Regional Airport, 18.4 nm (34.2 km) W. Retrieved 2019/02/15 18:48 UTC (3 hours ago):

TAF KSBY 151746Z 1518/1618 20015G25KT P6SM BKN100 FM152200 21007KT P6SM OVC080 FM160600 35009KT P6SM OVC060 FM161300 36011KT 5SM -RASN OVC008